Time;durP1;ratioP1;P1;durP2;ratioP2;P2;SDS_P1;SDS_P2;PMS_P1;PMS_P2;Temp;Humidity;BMP_temperature;BMP_pressure;BME280_temperature;BME280_humidity;BME280_pressure;Samples;Min_cycle;Max_cycle;Signal;HPM_P1;HPM_P2
2022/12/12 00:02:24;;;;;;;2.40;0.80;;;;;;;13.08;61.89;97586.47;6039427;23;20168;-87
2022/12/12 00:04:50;;;;;;;1.63;0.67;;;;;;;12.90;62.22;97588.88;6015978;23;20166;-87
2022/12/12 00:07:15;;;;;;;0.53;0.37;;;;;;;12.96;62.53;97596.25;6039154;23;20185;-87
2022/12/12 00:09:41;;;;;;;1.33;0.60;;;;;;;13.00;61.88;97604.72;6040571;23;20197;-87
2022/12/12 00:12:07;;;;;;;1.47;0.70;;;;;;;12.87;62.05;97613.66;6041194;23;20157;-87
2022/12/12 00:14:33;;;;;;;2.33;1.20;;;;;;;12.79;61.59;97618.72;6016910;23;20167;-87
2022/12/12 00:16:58;;;;;;;1.90;0.60;;;;;;;12.73;61.97;97618.44;6015655;23;20527;-87
2022/12/12 00:19:23;;;;;;;2.53;0.90;;;;;;;12.74;61.81;97618.28;6039652;23;20568;-87
2022/12/12 00:21:49;;;;;;;1.10;0.60;;;;;;;12.70;61.18;97627.41;6039263;23;20162;-87
2022/12/12 00:24:14;;;;;;;2.30;1.10;;;;;;;12.58;61.13;97631.06;6016254;23;20571;-87
2022/12/12 00:26:40;;;;;;;1.87;0.83;;;;;;;12.43;61.72;97637.63;6040494;23;20153;-86
2022/12/12 00:29:06;;;;;;;6.00;0.90;;;;;;;12.32;62.01;97640.28;6040622;23;20196;-87
2022/12/12 00:31:31;;;;;;;3.10;1.13;;;;;;;12.40;61.48;97629.97;6040696;23;20630;-87
2022/12/12 00:33:57;;;;;;;1.77;0.80;;;;;;;12.42;61.07;97630.69;6015586;23;20493;-87
2022/12/12 00:36:25;;;;;;;1.60;0.90;;;;;;;12.32;60.79;97641.13;6041057;23;20159;-87
2022/12/12 00:38:52;;;;;;;1.00;0.70;;;;;;;12.12;61.09;97643.75;6040346;23;20151;-87
2022/12/12 00:41:18;;;;;;;2.60;0.80;;;;;;;11.84;62.17;97633.84;6039476;23;20159;-87
2022/12/12 00:43:44;;;;;;;1.37;0.80;;;;;;;11.68;62.30;97635.09;6040536;23;20170;-87
2022/12/12 00:46:36;;;;;;;1.03;0.60;;;;;;;11.62;62.45;97638.19;6040305;23;20626;-87
2022/12/12 00:49:01;;;;;;;1.87;0.80;;;;;;;11.61;63.03;97633.88;6035198;23;20193;-87
2022/12/12 00:51:28;;;;;;;4.37;1.57;;;;;;;11.63;62.85;97647.69;6040232;23;20154;-87
2022/12/12 00:53:56;;;;;;;1.67;0.87;;;;;;;11.71;62.88;97645.31;6040330;23;20642;-87
2022/12/12 00:56:23;;;;;;;2.30;0.90;;;;;;;11.78;62.60;97652.72;6040179;23;20186;-87
2022/12/12 00:58:50;;;;;;;1.33;0.70;;;;;;;11.80;62.42;97645.53;6038930;23;20150;-87
2022/12/12 01:01:23;;;;;;;1.60;0.80;;;;;;;11.79;62.28;97657.00;6015353;23;20162;-87
2022/12/12 01:03:49;;;;;;;1.60;0.80;;;;;;;11.83;62.00;97663.66;6040148;23;20153;-86
2022/12/12 01:06:15;;;;;;;1.47;0.77;;;;;;;11.84;61.94;97665.34;6015657;23;20159;-87
2022/12/12 01:08:40;;;;;;;1.80;0.87;;;;;;;11.77;62.16;97670.25;6038750;23;20189;-87
2022/12/12 01:11:07;;;;;;;1.47;0.70;;;;;;;11.72;62.15;97669.78;6040033;23;20152;-86
2022/12/12 01:13:33;;;;;;;1.17;0.53;;;;;;;11.75;62.40;97672.16;6038680;23;20167;-87
2022/12/12 01:15:58;;;;;;;0.97;0.53;;;;;;;11.85;62.16;97673.09;6039988;23;20152;-87
2022/12/12 01:18:24;;;;;;;1.47;0.80;;;;;;;11.92;62.10;97681.31;6040218;23;20232;-87
2022/12/12 01:20:50;;;;;;;4.23;1.00;;;;;;;11.88;61.61;97685.13;6040297;23;20157;-87
2022/12/12 01:23:15;;;;;;;1.10;0.50;;;;;;;11.81;61.73;97691.84;6038663;23;20202;-87
2022/12/12 01:25:41;;;;;;;1.20;0.70;;;;;;;11.84;61.82;97694.22;6039065;23;20154;-87
2022/12/12 01:28:07;;;;;;;1.80;0.90;;;;;;;11.86;61.55;97689.69;6040123;23;20560;-87
2022/12/12 01:30:33;;;;;;;1.33;0.77;;;;;;;11.88;61.51;97693.84;6040175;23;20155;-87
2022/12/12 01:32:59;;;;;;;1.30;0.60;;;;;;;11.86;61.65;97700.19;6040474;23;20239;-87
2022/12/12 01:35:25;;;;;;;2.13;0.90;;;;;;;11.81;61.54;97697.94;6038609;23;20598;-87
2022/12/12 01:37:50;;;;;;;1.33;0.60;;;;;;;11.78;61.75;97705.22;6039574;23;20222;-87
2022/12/12 01:40:23;;;;;;;2.77;0.97;;;;;;;11.76;61.79;97705.34;6015328;23;20562;-87
2022/12/12 01:42:49;;;;;;;1.37;0.80;;;;;;;11.77;61.70;97703.53;6038455;23;20607;-87
2022/12/12 01:46:11;;;;;;;2.83;1.20;;;;;;;11.74;61.78;97709.06;6014874;23;20186;-87
2022/12/12 01:48:49;;;;;;;5.43;1.10;;;;;;;11.84;61.30;97720.47;5954307;24;20195;-87
2022/12/12 01:51:18;;;;;;;6.27;1.07;;;;;;;11.78;60.58;97724.44;5931023;24;20165;-87
2022/12/12 01:53:44;;;;;;;2.63;0.90;;;;;;;11.68;61.33;97732.22;6002412;23;20224;-87
2022/12/12 01:56:14;;;;;;;3.53;1.20;;;;;;;11.69;61.15;97731.22;6014735;23;20183;-87
2022/12/12 01:58:43;;;;;;;0.83;0.53;;;;;;;11.69;60.99;97725.97;6039630;23;20147;-87
2022/12/12 02:01:09;;;;;;;1.20;0.83;;;;;;;11.62;60.97;97740.53;6015134;23;20247;-87
2022/12/12 02:03:35;;;;;;;2.87;0.87;;;;;;;11.54;61.42;97734.19;6039587;23;20151;-87
2022/12/12 02:06:04;;;;;;;1.70;0.73;;;;;;;11.60;61.08;97739.81;6039508;23;20167;-87
2022/12/12 02:08:31;;;;;;;3.17;1.07;;;;;;;11.51;60.94;97737.06;6014606;23;20182;-87
2022/12/12 02:10:57;;;;;;;3.40;0.90;;;;;;;11.27;61.97;97744.25;6015652;23;20194;-87
2022/12/12 02:13:26;;;;;;;2.50;1.27;;;;;;;11.24;62.52;97745.28;6040142;23;20622;-87
2022/12/12 02:15:55;;;;;;;2.73;0.93;;;;;;;11.13;62.95;97762.81;6014608;23;20165;-86
2022/12/12 02:18:20;;;;;;;2.37;1.20;;;;;;;11.10;63.36;97750.78;6040031;23;20154;-86
2022/12/12 02:20:53;;;;;;;3.93;0.93;;;;;;;11.17;63.02;97743.25;6014610;23;20158;-86
2022/12/12 02:23:36;;;;;;;1.27;0.80;;;;;;;11.16;62.75;97746.84;6014810;23;20298;-87
2022/12/12 02:26:07;;;;;;;2.47;0.70;;;;;;;11.06;62.99;97738.84;6039762;23;20217;-86
2022/12/12 02:29:01;;;;;;;1.90;0.93;;;;;;;10.86;63.22;97743.00;6039646;23;20177;-86
2022/12/12 02:31:40;;;;;;;2.33;1.07;;;;;;;10.76;64.08;97738.56;6040129;23;20146;-86
2022/12/12 02:34:25;;;;;;;2.33;1.00;;;;;;;10.64;64.00;97744.72;6039632;23;20138;-86
2022/12/12 02:37:10;;;;;;;4.10;1.00;;;;;;;10.60;64.40;97756.38;6014436;23;20147;-87
2022/12/12 02:39:41;;;;;;;1.43;0.70;;;;;;;10.57;64.07;97757.44;6039509;23;20486;-86
2022/12/12 02:42:22;;;;;;;2.43;1.00;;;;;;;10.62;64.13;97757.09;6039183;23;20230;-86
2022/12/12 02:45:15;;;;;;;2.17;0.87;;;;;;;10.71;63.68;97762.50;6039041;23;20240;-86
2022/12/12 02:47:55;;;;;;;1.50;0.80;;;;;;;10.71;63.54;97761.66;6039883;23;20627;-86
2022/12/12 02:50:24;;;;;;;3.63;0.83;;;;;;;10.71;63.53;97759.03;6039622;23;20139;-86
2022/12/12 02:52:50;;;;;;;1.47;0.80;;;;;;;10.62;63.34;97757.94;6039558;23;20150;-87
2022/12/12 02:55:17;;;;;;;2.87;0.80;;;;;;;10.61;63.14;97758.06;6039898;23;20162;-87
2022/12/12 02:57:42;;;;;;;1.67;0.90;;;;;;;10.53;63.14;97766.50;6039157;23;20230;-87
2022/12/12 03:00:10;;;;;;;1.07;0.60;;;;;;;10.43;63.38;97773.31;6039489;23;20175;-86
2022/12/12 03:09:41;;;;;;;3.63;1.00;;;;;;;10.20;65.09;97782.88;6039779;23;20283;-86
2022/12/12 03:12:13;;;;;;;4.50;1.17;;;;;;;10.33;64.40;97788.91;6039676;23;20229;-86
2022/12/12 03:15:00;;;;;;;1.67;1.00;;;;;;;10.27;64.53;97783.28;6039402;23;20138;-86
2022/12/12 03:17:34;;;;;;;1.83;1.20;;;;;;;10.25;64.73;97780.75;6037971;23;20688;-86
2022/12/12 03:20:12;;;;;;;4.07;1.10;;;;;;;10.16;64.91;97781.44;6039537;23;20138;-86
2022/12/12 03:22:53;;;;;;;2.10;1.10;;;;;;;10.03;65.29;97778.00;6014597;23;20562;-86
2022/12/12 03:25:28;;;;;;;3.20;1.03;;;;;;;9.99;65.79;97779.16;6039546;23;20145;-86
2022/12/12 03:28:16;;;;;;;1.10;0.67;;;;;;;9.97;65.93;97780.22;6037684;23;20178;-86
2022/12/12 03:30:45;;;;;;;3.00;0.97;;;;;;;9.97;65.86;97783.66;6039085;23;20165;-86
2022/12/12 03:33:33;;;;;;;2.17;1.07;;;;;;;9.93;66.03;97779.63;6039124;23;20341;-86
2022/12/12 03:36:14;;;;;;;1.70;1.00;;;;;;;9.90;65.73;97793.72;6039029;23;20190;-86
2022/12/12 03:38:46;;;;;;;1.10;0.70;;;;;;;9.88;65.81;97793.00;6039731;23;20169;-86
2022/12/12 03:41:18;;;;;;;3.13;1.27;;;;;;;9.87;65.98;97793.13;6039332;23;20164;-86
2022/12/12 03:43:59;;;;;;;3.07;1.20;;;;;;;9.90;65.74;97795.53;6039401;23;20201;-86
2022/12/12 03:46:53;;;;;;;3.00;1.37;;;;;;;9.99;65.54;97797.47;6039684;23;20150;-86
2022/12/12 03:49:34;;;;;;;1.83;0.80;;;;;;;9.96;65.44;97809.97;6037625;23;20169;-86
2022/12/12 03:52:12;;;;;;;1.90;1.07;;;;;;;9.84;65.41;97812.50;6041109;23;20149;-86
2022/12/12 03:54:46;;;;;;;1.80;1.00;;;;;;;9.76;65.55;97822.66;6041415;23;20142;-86
2022/12/12 03:57:18;;;;;;;2.33;1.23;;;;;;;9.73;65.65;97824.66;6015720;23;20145;-86
2022/12/12 03:59:56;;;;;;;2.47;1.30;;;;;;;9.76;65.95;97829.66;6041084;23;20138;-86
2022/12/12 04:02:33;;;;;;;3.33;1.83;;;;;;;9.85;65.90;97839.50;6041017;23;20164;-86
2022/12/12 04:05:20;;;;;;;3.33;1.23;;;;;;;9.91;65.63;97844.28;6041284;23;20148;-86
2022/12/12 04:08:14;;;;;;;2.33;1.47;;;;;;;9.96;65.72;97833.53;6041132;23;20252;-86
2022/12/12 04:14:00;;;;;;;5.33;1.60;;;;;;;9.98;65.22;97855.19;6040872;23;20562;-86
2022/12/12 04:16:32;;;;;;;2.90;1.10;;;;;;;9.72;66.33;97859.63;5987654;23;20184;-86
2022/12/12 04:19:05;;;;;;;2.83;1.60;;;;;;;9.72;66.80;97857.81;6015727;23;20237;-86
2022/12/12 04:24:24;;;;;;;1.37;0.87;;;;;;;9.92;65.77;97856.44;6040547;23;20153;-86
2022/12/12 04:27:06;;;;;;;6.03;1.20;;;;;;;9.76;66.19;97861.06;6041401;23;20143;-86
2022/12/12 04:29:54;;;;;;;1.40;1.00;;;;;;;9.77;66.29;97847.88;6040945;23;20228;-86
2022/12/12 04:32:27;;;;;;;2.40;1.10;;;;;;;9.84;66.29;97845.66;6039836;23;20246;-86
2022/12/12 04:34:57;;;;;;;2.10;1.03;;;;;;;9.81;67.06;97849.34;6040699;23;20142;-86
2022/12/12 04:37:29;;;;;;;2.50;0.90;;;;;;;9.74;67.41;97858.56;6040659;23;20141;-86
2022/12/12 04:40:00;;;;;;;4.40;1.20;;;;;;;9.88;67.47;97862.81;6015490;23;20153;-86
2022/12/12 04:42:29;;;;;;;2.80;1.40;;;;;;;9.93;67.40;97868.59;6040957;23;20176;-86
2022/12/12 04:45:01;;;;;;;2.13;1.07;;;;;;;9.92;67.74;97872.16;6040033;23;20200;-86
2022/12/12 04:47:29;;;;;;;2.20;1.00;;;;;;;10.01;67.62;97871.47;6015326;23;20245;-86
2022/12/12 04:49:57;;;;;;;2.23;1.20;;;;;;;10.08;66.77;97871.91;6039329;23;20553;-86
2022/12/12 04:52:23;;;;;;;3.50;1.40;;;;;;;9.96;66.35;97865.75;6015019;23;20582;-87
2022/12/12 04:55:02;;;;;;;4.23;1.33;;;;;;;9.95;66.55;97861.47;6038904;23;20220;-86
2022/12/12 04:57:38;;;;;;;5.40;2.03;;;;;;;9.88;66.47;97861.03;6041213;23;20197;-86
2022/12/12 05:00:06;;;;;;;4.33;1.43;;;;;;;9.93;66.41;97860.75;6040222;23;20229;-86
2022/12/12 05:03:09;;;;;;;2.87;1.57;;;;;;;9.87;66.52;97863.78;6015480;23;20248;-86
2022/12/12 05:05:42;;;;;;;3.47;1.30;;;;;;;9.84;66.05;97867.44;6040529;23;20152;-86
2022/12/12 05:08:15;;;;;;;2.23;1.30;;;;;;;9.82;66.53;97861.50;6040364;23;20279;-86
2022/12/12 05:10:43;;;;;;;2.70;1.50;;;;;;;9.86;66.15;97873.41;6015251;23;20150;-86
2022/12/12 05:13:17;;;;;;;2.90;1.20;;;;;;;9.93;65.85;97865.97;6040398;23;20154;-87
2022/12/12 05:15:43;;;;;;;3.23;1.30;;;;;;;9.97;65.24;97884.91;6039638;23;20188;-87
2022/12/12 05:18:10;;;;;;;2.83;1.50;;;;;;;9.98;65.04;97883.97;6015178;23;20153;-87
2022/12/12 05:20:36;;;;;;;4.23;1.60;;;;;;;9.96;64.86;97899.75;6039102;23;20156;-87
2022/12/12 05:23:03;;;;;;;3.83;1.27;;;;;;;9.99;64.32;97920.50;6040922;23;20217;-86
2022/12/12 05:25:28;;;;;;;2.13;1.10;;;;;;;9.91;64.85;97920.19;6039975;23;20233;-86
2022/12/12 05:27:54;;;;;;;3.73;1.83;;;;;;;9.87;64.90;97922.19;6014911;23;20605;-87
2022/12/12 05:30:20;;;;;;;5.50;1.50;;;;;;;9.89;64.91;97924.69;6040237;23;20153;-86
2022/12/12 05:32:45;;;;;;;2.13;1.03;;;;;;;9.89;65.06;97929.94;6039819;23;20165;-86
2022/12/12 05:35:39;;;;;;;;;;;;;;;;;;;;;
2022/12/12 05:38:14;;;;;;;4.20;1.33;;;;;;;10.03;64.34;97919.34;6040302;23;20242;-86
2022/12/12 05:40:40;;;;;;;1.73;1.03;;;;;;;10.01;63.99;97934.31;6038696;23;20160;-87
2022/12/12 05:43:05;;;;;;;2.60;1.37;;;;;;;9.91;63.95;97938.50;6014772;23;20173;-87
2022/12/12 05:45:31;;;;;;;41.17;13.63;;;;;;;9.93;64.13;97941.03;6040046;23;20157;-87
2022/12/12 05:47:56;;;;;;;8.30;3.77;;;;;;;9.97;64.13;97943.31;6038798;23;20189;-86
2022/12/12 05:50:22;;;;;;;3.67;2.10;;;;;;;9.92;64.33;97945.44;6038861;23;20165;-86
2022/12/12 05:52:48;;;;;;;3.50;1.87;;;;;;;9.90;64.14;97952.56;6038786;23;20231;-86
2022/12/12 05:55:14;;;;;;;3.03;1.47;;;;;;;9.90;63.75;97955.97;6039103;23;20169;-87
2022/12/12 05:57:39;;;;;;;3.90;1.40;;;;;;;9.91;64.08;97946.34;6038366;23;20529;-86
2022/12/12 06:00:05;;;;;;;8.37;2.50;;;;;;;9.83;64.50;97941.66;6015116;23;20168;-86
2022/12/12 06:02:31;;;;;;;61.00;17.57;;;;;;;9.79;64.66;97950.66;6038258;23;20160;-86
2022/12/12 06:04:56;;;;;;;43.50;13.00;;;;;;;9.75;64.80;97956.19;6039765;23;20154;-86
2022/12/12 06:07:22;;;;;;;25.70;5.67;;;;;;;9.82;65.27;97954.84;6038249;23;20198;-86
2022/12/12 06:09:47;;;;;;;14.77;4.80;;;;;;;9.84;65.07;97956.41;6038316;23;20154;-86
2022/12/12 06:12:12;;;;;;;16.73;6.30;;;;;;;9.94;65.06;97961.00;6014708;23;20654;-86
2022/12/12 06:14:38;;;;;;;6.17;2.27;;;;;;;10.00;64.91;97952.75;6014998;23;20161;-86
2022/12/12 06:17:03;;;;;;;6.93;2.50;;;;;;;10.05;64.84;97961.97;6038265;23;20228;-86
2022/12/12 06:19:29;;;;;;;3.63;1.97;;;;;;;10.14;64.36;97961.34;6040065;23;20180;-86
2022/12/12 06:21:54;;;;;;;4.27;1.57;;;;;;;10.15;64.64;97962.19;6038633;23;20172;-86
2022/12/12 06:24:20;;;;;;;4.20;2.20;;;;;;;10.10;64.96;97975.56;6014613;23;20157;-86
2022/12/12 06:26:45;;;;;;;3.93;1.87;;;;;;;10.15;65.34;97977.91;6014570;23;20168;-86
2022/12/12 06:29:11;;;;;;;3.80;1.90;;;;;;;10.21;65.56;97967.84;6038098;23;20193;-86
2022/12/12 06:31:37;;;;;;;9.27;4.17;;;;;;;10.27;65.34;97982.31;6038081;23;20154;-86
2022/12/12 06:34:02;;;;;;;20.67;9.70;;;;;;;10.34;65.25;97984.38;6039657;23;20225;-86
2022/12/12 06:36:28;;;;;;;15.90;7.23;;;;;;;10.39;65.19;97977.03;6039965;23;20161;-86
2022/12/12 06:38:56;;;;;;;15.60;6.87;;;;;;;10.45;64.95;97979.19;6039266;23;20146;-86
2022/12/12 06:41:23;;;;;;;17.03;7.53;;;;;;;10.52;65.07;97987.47;6039647;23;20169;-86
2022/12/12 06:43:48;;;;;;;18.17;8.97;;;;;;;10.55;64.91;97991.66;6014309;23;20256;-86
2022/12/12 06:46:17;;;;;;;22.97;9.43;;;;;;;10.58;64.97;98002.78;6039252;23;20618;-86
2022/12/12 06:48:42;;;;;;;18.53;8.87;;;;;;;10.62;64.99;98003.38;6039470;23;20264;-86
2022/12/12 06:51:12;;;;;;;16.37;7.70;;;;;;;10.71;64.34;98008.81;6039309;23;20550;-86
2022/12/12 06:53:37;;;;;;;19.33;8.93;;;;;;;10.72;64.41;98007.88;6039025;23;20150;-86
2022/12/12 06:56:15;;;;;;;25.20;9.93;;;;;;;10.78;64.24;98014.47;6039209;23;20164;-86
2022/12/12 06:58:40;;;;;;;27.80;10.40;;;;;;;10.76;64.21;98016.34;6014790;23;20181;-86
2022/12/12 07:01:06;;;;;;;23.27;10.47;;;;;;;10.81;64.20;98022.09;6039246;23;20150;-86
2022/12/12 07:03:31;;;;;;;23.60;9.10;;;;;;;10.84;64.38;98019.28;6037775;23;20158;-86
2022/12/12 07:05:58;;;;;;;13.23;7.63;;;;;;;10.84;64.21;98016.66;6038366;23;20154;-86
2022/12/12 07:08:23;;;;;;;21.37;9.63;;;;;;;10.73;64.67;98016.56;6039090;23;20272;-86
2022/12/12 07:10:49;;;;;;;26.50;10.70;;;;;;;10.69;65.23;98015.13;6039232;23;20253;-86
2022/12/12 07:13:14;;;;;;;23.57;9.57;;;;;;;10.79;64.76;98003.03;6014334;23;20165;-86
2022/12/12 07:15:45;;;;;;;20.00;7.93;;;;;;;10.87;64.68;98008.56;6039221;23;20460;-86
2022/12/12 07:18:11;;;;;;;12.63;5.40;;;;;;;10.85;64.13;98020.91;6041272;23;20154;-86
2022/12/12 07:20:41;;;;;;;11.67;4.37;;;;;;;10.89;64.04;98019.78;6039829;23;20513;-86
2022/12/12 07:23:08;;;;;;;6.93;3.87;;;;;;;10.95;63.77;98024.59;6016186;23;20158;-86
2022/12/12 07:25:37;;;;;;;12.03;5.53;;;;;;;10.98;63.84;98027.81;6040822;23;20567;-86
2022/12/12 07:28:04;;;;;;;8.93;4.93;;;;;;;10.92;63.95;98030.91;6040867;23;20182;-86
2022/12/12 07:30:29;;;;;;;10.90;4.73;;;;;;;10.90;64.73;98035.38;6040684;23;20264;-86
2022/12/12 07:32:54;;;;;;;10.97;4.17;;;;;;;10.92;64.80;98032.66;6016128;23;20167;-86
2022/12/12 07:35:20;;;;;;;6.73;4.40;;;;;;;10.98;64.87;98035.69;6041191;23;20155;-86
2022/12/12 07:37:46;;;;;;;10.07;4.73;;;;;;;11.03;64.75;98046.66;6016053;23;20153;-86
2022/12/12 07:40:11;;;;;;;10.23;3.47;;;;;;;11.11;64.79;98046.13;6015981;23;20162;-86
2022/12/12 07:42:37;;;;;;;6.13;3.80;;;;;;;11.14;64.63;98048.53;6040677;23;20166;-86
2022/12/12 07:45:03;;;;;;;6.87;3.47;;;;;;;11.22;64.37;98050.59;6041477;23;20416;-86
2022/12/12 07:47:28;;;;;;;6.80;3.57;;;;;;;11.29;63.93;98052.69;6016803;23;20191;-86
2022/12/12 07:49:54;;;;;;;6.87;3.43;;;;;;;11.32;63.90;98052.44;6041383;23;20152;-86
2022/12/12 07:52:20;;;;;;;7.63;3.53;;;;;;;11.36;64.06;98053.06;6039560;23;20170;-86
2022/12/12 07:54:45;;;;;;;6.43;3.23;;;;;;;11.45;63.77;98061.09;6015823;23;20247;-86
2022/12/12 07:57:11;;;;;;;7.53;3.13;;;;;;;11.52;63.95;98059.72;6039877;23;20554;-86
2022/12/12 07:59:37;;;;;;;8.83;3.83;;;;;;;11.59;63.83;98058.28;6040677;23;20481;-86
2022/12/12 08:02:02;;;;;;;8.70;4.20;;;;;;;11.68;63.61;98057.66;6039453;23;20246;-86
2022/12/12 08:04:28;;;;;;;6.67;4.00;;;;;;;11.74;63.42;98048.47;6039762;23;20153;-86
2022/12/12 08:06:53;;;;;;;9.87;3.57;;;;;;;11.85;63.09;98052.91;6015773;23;20159;-86
2022/12/12 08:09:19;;;;;;;5.63;3.13;;;;;;;11.98;63.40;98046.63;6041175;23;20182;-86
2022/12/12 08:11:44;;;;;;;15.00;6.53;;;;;;;12.10;62.58;98055.41;6039415;23;20165;-86
2022/12/12 08:14:10;;;;;;;6.97;3.47;;;;;;;12.23;62.12;98049.09;6040537;23;20152;-86
2022/12/12 08:16:35;;;;;;;8.60;3.60;;;;;;;12.35;61.99;98060.44;6040497;23;20151;-86
2022/12/12 08:19:01;;;;;;;7.47;3.43;;;;;;;12.40;61.61;98054.81;6015675;23;20166;-86
2022/12/12 08:21:27;;;;;;;9.87;3.87;;;;;;;12.39;61.91;98054.00;6040697;23;20183;-86
2022/12/12 08:23:57;;;;;;;8.43;2.47;;;;;;;12.49;62.08;98048.88;6040443;23;20608;-86
2022/12/12 08:26:24;;;;;;;5.93;2.70;;;;;;;12.40;62.38;98047.78;6040337;23;20157;-86
2022/12/12 08:28:50;;;;;;;7.13;2.90;;;;;;;12.47;62.60;98043.75;6015001;23;20193;-86
2022/12/12 08:31:17;;;;;;;13.43;3.40;;;;;;;12.66;63.32;98038.72;6039195;23;20184;-86
2022/12/12 08:33:44;;;;;;;7.77;3.23;;;;;;;12.76;62.63;98044.91;6039743;23;20167;-87
2022/12/12 08:36:18;;;;;;;9.87;4.03;;;;;;;12.86;62.93;98039.78;6016331;23;20511;-86
2022/12/12 08:38:44;;;;;;;11.50;5.90;;;;;;;12.87;61.83;98052.78;6015339;23;20520;-86
2022/12/12 08:41:11;;;;;;;14.73;7.13;;;;;;;12.98;62.33;98056.38;6040312;23;20257;-86
2022/12/12 08:43:38;;;;;;;21.80;8.07;;;;;;;13.05;61.48;98047.06;6040020;23;20208;-86
2022/12/12 08:46:05;;;;;;;16.63;7.93;;;;;;;13.20;61.48;98054.59;6040255;23;20254;-86
2022/12/12 08:48:31;;;;;;;19.47;8.37;;;;;;;13.37;60.97;98051.41;6040123;23;20187;-86
2022/12/12 08:50:56;;;;;;;18.53;7.67;;;;;;;13.44;60.66;98051.78;6040169;23;20153;-86
2022/12/12 08:53:23;;;;;;;21.40;9.43;;;;;;;13.51;59.82;98058.19;6040211;23;20329;-86
2022/12/12 08:55:48;;;;;;;20.87;9.37;;;;;;;13.48;60.56;98058.44;6040748;23;20168;-86
2022/12/12 08:58:14;;;;;;;17.13;7.57;;;;;;;13.66;60.55;98058.72;6015722;23;20153;-86
2022/12/12 09:00:40;;;;;;;18.43;7.53;;;;;;;13.78;59.83;98058.56;6040178;23;20231;-86
2022/12/12 09:03:06;;;;;;;18.73;7.97;;;;;;;13.86;59.64;98058.75;6040392;23;20149;-86
2022/12/12 09:05:31;;;;;;;19.23;8.17;;;;;;;13.96;59.57;98048.31;6040116;23;20164;-86
2022/12/12 09:07:58;;;;;;;16.67;8.07;;;;;;;14.09;59.07;98051.59;6040714;23;20594;-86
2022/12/12 09:10:25;;;;;;;15.93;6.57;;;;;;;14.14;58.75;98049.41;6038861;23;20154;-87
2022/12/12 09:12:50;;;;;;;24.70;8.83;;;;;;;14.16;59.15;98048.31;6015155;23;20244;-86
2022/12/12 09:15:16;;;;;;;19.80;7.43;;;;;;;14.44;58.81;98044.19;6039972;23;20181;-86
2022/12/12 09:17:42;;;;;;;15.60;8.30;;;;;;;14.63;58.47;98046.06;6039084;23;20151;-87
2022/12/12 09:20:08;;;;;;;19.67;7.90;;;;;;;14.80;58.57;98049.91;6039156;23;20162;-87
2022/12/12 09:22:34;;;;;;;12.90;6.63;;;;;;;14.97;58.65;98044.81;6039856;23;20581;-86
2022/12/12 09:24:59;;;;;;;13.53;6.57;;;;;;;15.15;57.59;98045.84;6039898;23;20153;-87
2022/12/12 09:27:25;;;;;;;13.63;5.07;;;;;;;15.39;57.09;98035.75;6038593;23;20211;-87
2022/12/12 09:29:50;;;;;;;10.10;5.20;;;;;;;15.58;56.53;98028.84;6038528;23;20159;-86
2022/12/12 09:32:17;;;;;;;10.67;4.90;;;;;;;15.74;55.67;98037.03;6038646;23;20223;-87
2022/12/12 09:34:42;;;;;;;13.47;4.83;;;;;;;15.76;55.19;98032.44;6040817;23;20160;-87
2022/12/12 09:37:08;;;;;;;11.27;4.93;;;;;;;15.87;55.32;98032.31;6038932;23;20161;-87
2022/12/12 09:39:33;;;;;;;9.20;3.40;;;;;;;15.93;55.36;98029.13;6038541;23;20559;-87
2022/12/12 09:42:09;;;;;;;9.63;3.37;;;;;;;15.91;54.81;98028.41;6039744;23;20152;-87
2022/12/12 09:44:35;;;;;;;8.23;4.03;;;;;;;16.11;54.97;98024.78;6039653;23;20188;-87
2022/12/12 09:47:06;;;;;;;5.47;2.50;;;;;;;16.16;53.59;98024.34;6040414;23;20150;-87
2022/12/12 09:49:48;;;;;;;6.33;2.83;;;;;;;16.32;52.67;98028.06;6040140;23;20545;-87
2022/12/12 09:52:26;;;;;;;7.83;2.23;;;;;;;16.39;52.00;98026.50;6040674;23;20472;-87
2022/12/12 09:54:51;;;;;;;7.10;2.33;;;;;;;16.36;50.54;98025.94;6015255;23;20149;-87
2022/12/12 09:57:34;;;;;;;7.63;3.27;;;;;;;16.23;50.06;98025.44;6040007;23;20157;-87
2022/12/12 10:00:09;;;;;;;6.50;2.43;;;;;;;16.28;50.16;98018.75;6039800;23;20166;-87
2022/12/12 10:02:43;;;;;;;4.33;2.00;;;;;;;16.46;50.17;98021.47;6039300;23;20466;-87
2022/12/12 10:05:18;;;;;;;3.00;1.23;;;;;;;16.59;50.28;98014.06;6038385;23;20160;-88
2022/12/12 10:07:56;;;;;;;3.80;1.73;;;;;;;16.74;50.00;98017.09;6014874;23;20184;-86
2022/12/12 10:10:35;;;;;;;4.23;1.93;;;;;;;17.08;48.60;98002.28;6039931;23;20138;-87
2022/12/12 10:13:03;;;;;;;3.90;2.07;;;;;;;17.06;48.08;98006.88;6038816;23;20643;-87
2022/12/12 10:15:48;;;;;;;7.27;1.83;;;;;;;17.03;47.21;98013.28;6015286;23;20169;-87
2022/12/12 10:18:21;;;;;;;4.20;1.93;;;;;;;17.13;48.32;98018.56;6014455;23;20249;-87
2022/12/12 10:20:54;;;;;;;5.97;2.40;;;;;;;17.19;47.17;98031.19;6038623;23;20146;-87
2022/12/12 10:23:50;;;;;;;4.13;2.23;;;;;;;17.39;47.43;98024.78;6015427;23;20169;-87
2022/12/12 10:26:19;;;;;;;5.03;2.80;;;;;;;17.61;46.85;98024.38;6037424;23;20192;-87
2022/12/12 10:28:48;;;;;;;14.23;6.07;;;;;;;17.23;46.50;98021.13;6039858;23;20174;-87
2022/12/12 10:31:39;;;;;;;18.87;5.57;;;;;;;17.09;48.05;98006.56;6039492;23;20154;-87
2022/12/12 10:34:29;;;;;;;15.43;4.67;;;;;;;17.23;47.08;98013.19;6039552;23;20614;-87
2022/12/12 10:37:15;;;;;;;14.90;4.33;;;;;;;17.34;45.84;98002.38;6039378;23;20161;-87
2022/12/12 10:40:10;;;;;;;12.50;4.37;;;;;;;17.48;46.36;98000.03;6039704;23;20209;-87
2022/12/12 10:42:51;;;;;;;4.93;2.27;;;;;;;17.65;44.91;97991.28;6039387;23;20204;-87
2022/12/12 10:45:16;;;;;;;3.53;1.63;;;;;;;17.68;45.33;97996.28;6014431;23;20157;-88
2022/12/12 10:47:43;;;;;;;4.93;1.77;;;;;;;17.36;46.80;97992.47;6038001;23;20185;-87
2022/12/12 10:50:26;;;;;;;3.10;1.70;;;;;;;17.35;46.59;98001.41;6039215;23;20166;-87
2022/12/12 10:52:51;;;;;;;6.07;1.40;;;;;;;17.69;45.85;97997.94;6038017;23;20215;-87
2022/12/12 10:55:35;;;;;;;1.83;0.70;;;;;;;17.92;44.78;97998.31;6015110;23;20581;-87
2022/12/12 10:58:03;;;;;;;2.30;0.90;;;;;;;17.79;44.62;97996.03;6039275;23;20212;-87
2022/12/12 11:00:37;;;;;;;1.87;0.80;;;;;;;17.76;44.71;97991.06;6039237;23;20164;-87
2022/12/12 11:03:12;;;;;;;2.87;1.00;;;;;;;17.48;44.64;97991.28;6039768;23;20156;-87
2022/12/12 11:05:39;;;;;;;3.67;1.50;;;;;;;17.55;45.28;97982.59;6039766;23;20156;-87
2022/12/12 11:08:18;;;;;;;3.43;0.87;;;;;;;17.68;44.81;97985.69;6039381;23;20184;-88
2022/12/12 11:10:43;;;;;;;3.70;1.33;;;;;;;17.60;44.45;97982.13;6039180;23;20223;-87
2022/12/12 11:13:09;;;;;;;1.93;1.03;;;;;;;17.58;44.56;97982.25;6039136;23;20508;-88
2022/12/12 11:15:50;;;;;;;2.43;1.00;;;;;;;17.84;44.47;97978.84;6039179;23;20239;-87
2022/12/12 11:18:19;;;;;;;4.53;1.03;;;;;;;17.96;43.75;97969.66;6014097;23;20203;-88
2022/12/12 11:20:48;;;;;;;2.53;0.80;;;;;;;18.20;43.17;97967.16;6014616;23;20172;-87
2022/12/12 11:23:19;;;;;;;1.57;1.00;;;;;;;18.25;42.38;97970.19;6039371;23;20160;-89
2022/12/12 11:25:52;;;;;;;1.77;1.00;;;;;;;17.94;43.50;97966.31;6039593;23;20138;-88
2022/12/12 11:28:22;;;;;;;2.77;0.80;;;;;;;17.91;42.62;97967.47;6014243;23;20186;-88
2022/12/12 11:30:51;;;;;;;2.87;0.77;;;;;;;17.83;43.19;97969.22;6014369;23;20150;-87
2022/12/12 11:33:32;;;;;;;1.73;0.70;;;;;;;17.91;42.62;97970.13;6014613;23;20165;-87
2022/12/12 11:36:00;;;;;;;3.73;0.60;;;;;;;18.14;43.10;97962.47;6039311;23;20145;-87
2022/12/12 11:38:39;;;;;;;2.93;0.73;;;;;;;17.96;42.17;97961.69;6038903;23;20602;-89
2022/12/12 11:41:07;;;;;;;2.00;0.77;;;;;;;18.06;42.69;97954.47;6039036;23;20202;-87
2022/12/12 11:43:36;;;;;;;2.17;0.87;;;;;;;17.98;41.74;97949.09;6038813;23;20248;-88
2022/12/12 11:46:13;;;;;;;0.80;0.50;;;;;;;17.70;42.83;97951.91;6037830;23;20162;-88
2022/12/12 11:48:51;;;;;;;1.43;0.53;;;;;;;17.79;42.97;97943.03;6038051;23;20181;-88
2022/12/12 11:51:39;;;;;;;1.53;1.00;;;;;;;17.93;42.83;97944.28;6039268;23;20157;-87
2022/12/12 11:54:11;;;;;;;1.00;0.63;;;;;;;18.09;42.20;97943.56;6039145;23;20210;-88
2022/12/12 11:56:42;;;;;;;2.43;0.70;;;;;;;18.07;42.26;97951.69;6039492;23;20579;-88
2022/12/12 11:59:26;;;;;;;2.13;0.80;;;;;;;17.85;41.83;97946.88;6013989;23;20184;-88
2022/12/12 12:02:09;;;;;;;1.53;0.70;;;;;;;17.72;42.52;97957.88;6037736;23;20285;-88
2022/12/12 12:05:00;;;;;;;1.00;0.67;;;;;;;17.76;42.25;97961.06;6015956;23;20177;-87